Time;durP1;ratioP1;P1;durP2;ratioP2;P2;SDS_P1;SDS_P2;PMS_P1;PMS_P2;Temp;Humidity;BMP_temperature;BMP_pressure;BME280_temperature;BME280_humidity;BME280_pressure;Samples;Min_cycle;Max_cycle;Signal;HPM_P1;HPM_P2
2021/07/26 00:02:57;;;;;;;2.94;2.13;;;;;;;21.96;72.38;99871.66;;;;-52
2021/07/26 00:05:57;;;;;;;2.63;2.10;;;;;;;21.95;72.36;99868.78;;;;-52
2021/07/26 00:08:57;;;;;;;2.31;2.10;;;;;;;21.95;72.35;99865.78;;;;-52
2021/07/26 00:11:57;;;;;;;2.15;1.97;;;;;;;21.94;72.35;99863.11;;;;-52
2021/07/26 00:14:57;;;;;;;2.51;2.11;;;;;;;21.94;72.37;99864.08;;;;-52
2021/07/26 00:17:57;;;;;;;2.40;2.20;;;;;;;21.94;72.39;99860.09;;;;-52
2021/07/26 00:20:57;;;;;;;2.37;2.17;;;;;;;21.94;72.38;99859.45;;;;-52
2021/07/26 00:23:57;;;;;;;2.72;2.29;;;;;;;21.93;72.39;99862.30;;;;-52
2021/07/26 00:26:57;;;;;;;2.47;2.15;;;;;;;21.93;72.36;99863.20;;;;-52
2021/07/26 00:29:57;;;;;;;2.49;2.10;;;;;;;21.92;72.39;99859.79;;;;-52
2021/07/26 00:32:57;;;;;;;2.32;2.12;;;;;;;21.92;72.39;99858.88;;;;-53
2021/07/26 00:35:57;;;;;;;2.32;2.12;;;;;;;21.92;72.35;99859.88;;;;-50
2021/07/26 00:38:57;;;;;;;2.77;2.19;;;;;;;21.92;72.37;99859.22;;;;-50
2021/07/26 00:41:57;;;;;;;2.27;2.07;;;;;;;21.91;72.38;99859.38;;;;-50
2021/07/26 00:44:57;;;;;;;2.39;2.19;;;;;;;21.91;72.36;99864.84;;;;-51
2021/07/26 00:47:57;;;;;;;2.43;2.03;;;;;;;21.92;72.37;99871.87;;;;-51
2021/07/26 00:50:57;;;;;;;2.30;2.10;;;;;;;21.91;72.37;99873.42;;;;-51
2021/07/26 00:53:57;;;;;;;2.36;2.16;;;;;;;21.91;72.40;99871.94;;;;-51
2021/07/26 00:56:57;;;;;;;2.36;2.16;;;;;;;21.91;72.38;99870.80;;;;-52
2021/07/26 00:59:57;;;;;;;2.45;2.25;;;;;;;21.90;72.39;99868.47;;;;-51
2021/07/26 01:02:57;;;;;;;2.35;2.15;;;;;;;21.90;72.37;99874.48;;;;-51
2021/07/26 01:05:57;;;;;;;2.30;2.10;;;;;;;21.90;72.39;99878.33;;;;-50
2021/07/26 01:08:57;;;;;;;2.54;2.34;;;;;;;21.90;72.35;99878.99;;;;-51
2021/07/26 01:11:57;;;;;;;2.24;2.01;;;;;;;21.89;72.35;99884.30;;;;-50
2021/07/26 01:14:57;;;;;;;2.26;2.06;;;;;;;21.89;72.36;99885.02;;;;-51
2021/07/26 01:17:58;;;;;;;3.03;1.97;;;;;;;21.89;72.37;99890.23;;;;-50
2021/07/26 01:20:57;;;;;;;2.50;2.30;;;;;;;21.89;72.33;99892.52;;;;-51
2021/07/26 01:23:57;;;;;;;2.65;2.45;;;;;;;21.89;72.33;99890.25;;;;-50
2021/07/26 01:26:57;;;;;;;3.03;2.09;;;;;;;21.88;72.36;99888.14;;;;-51
2021/07/26 01:29:57;;;;;;;2.44;2.24;;;;;;;21.88;72.34;99891.98;;;;-53
2021/07/26 01:32:57;;;;;;;2.41;2.21;;;;;;;21.88;72.36;99891.98;;;;-52
2021/07/26 01:35:57;;;;;;;2.39;2.19;;;;;;;21.88;72.32;99890.52;;;;-53
2021/07/26 01:38:57;;;;;;;2.41;2.09;;;;;;;21.87;72.34;99892.32;;;;-53
2021/07/26 01:41:57;;;;;;;2.35;2.15;;;;;;;21.88;72.33;99895.98;;;;-52
2021/07/26 01:44:58;;;;;;;2.25;2.05;;;;;;;21.87;72.33;99893.70;;;;-57
2021/07/26 01:47:57;;;;;;;2.08;1.96;;;;;;;21.87;72.34;99895.27;;;;-51
2021/07/26 01:50:57;;;;;;;2.48;2.28;;;;;;;21.87;72.34;99898.61;;;;-50
2021/07/26 01:53:57;;;;;;;2.39;2.19;;;;;;;21.87;72.35;99894.35;;;;-51
2021/07/26 01:56:57;;;;;;;2.25;2.05;;;;;;;21.86;72.34;99890.20;;;;-51
2021/07/26 01:59:57;;;;;;;2.47;2.27;;;;;;;21.87;72.33;99894.52;;;;-50
2021/07/26 02:02:57;;;;;;;2.53;2.33;;;;;;;21.86;72.33;99892.00;;;;-50
2021/07/26 02:05:57;;;;;;;2.44;2.24;;;;;;;21.86;72.34;99895.77;;;;-51
2021/07/26 02:08:57;;;;;;;2.43;2.23;;;;;;;21.85;72.33;99893.41;;;;-50
2021/07/26 02:11:57;;;;;;;2.31;2.11;;;;;;;21.85;72.29;99889.99;;;;-51
2021/07/26 02:14:58;;;;;;;2.42;2.22;;;;;;;21.85;72.31;99890.39;;;;-50
2021/07/26 02:17:57;;;;;;;2.55;2.02;;;;;;;21.86;72.32;99889.48;;;;-51
2021/07/26 02:20:57;;;;;;;2.33;2.13;;;;;;;21.85;72.32;99892.00;;;;-51
2021/07/26 02:23:57;;;;;;;2.40;2.20;;;;;;;21.85;72.30;99894.29;;;;-51
2021/07/26 02:26:57;;;;;;;2.39;2.19;;;;;;;21.85;72.32;99894.63;;;;-51
2021/07/26 02:29:57;;;;;;;3.39;2.29;;;;;;;21.85;72.29;99899.19;;;;-52
2021/07/26 02:32:57;;;;;;;2.43;2.23;;;;;;;21.84;72.29;99899.36;;;;-51
2021/07/26 02:35:57;;;;;;;2.45;2.25;;;;;;;21.85;72.28;99906.28;;;;-51
2021/07/26 02:38:57;;;;;;;2.23;2.03;;;;;;;21.84;72.33;99915.02;;;;-58
2021/07/26 02:41:57;;;;;;;2.51;2.31;;;;;;;21.84;72.31;99912.59;;;;-51
2021/07/26 02:44:57;;;;;;;2.37;2.17;;;;;;;21.84;72.35;99912.75;;;;-52
2021/07/26 02:47:57;;;;;;;2.37;2.17;;;;;;;21.84;72.33;99916.59;;;;-51
2021/07/26 02:50:57;;;;;;;2.39;2.18;;;;;;;21.83;72.31;99920.27;;;;-51
2021/07/26 02:53:57;;;;;;;2.32;2.12;;;;;;;21.83;72.37;99921.56;;;;-51
2021/07/26 02:56:57;;;;;;;2.71;2.22;;;;;;;21.83;72.31;99923.20;;;;-51
2021/07/26 02:59:57;;;;;;;2.39;2.19;;;;;;;21.83;72.35;99917.42;;;;-52
2021/07/26 03:02:57;;;;;;;2.62;2.19;;;;;;;21.83;72.32;99919.28;;;;-51
2021/07/26 03:05:57;;;;;;;2.40;2.20;;;;;;;21.82;72.33;99922.48;;;;-51
2021/07/26 03:08:57;;;;;;;2.42;2.22;;;;;;;21.82;72.30;99927.44;;;;-57
2021/07/26 03:11:57;;;;;;;2.84;2.32;;;;;;;21.82;72.36;99928.91;;;;-57
2021/07/26 03:14:57;;;;;;;2.05;1.93;;;;;;;21.82;72.35;99935.04;;;;-58
2021/07/26 03:17:57;;;;;;;2.18;2.07;;;;;;;21.82;72.36;99932.03;;;;-57
2021/07/26 03:20:57;;;;;;;2.33;2.13;;;;;;;21.82;72.32;99929.34;;;;-57
2021/07/26 03:23:57;;;;;;;2.43;2.23;;;;;;;21.82;72.33;99928.85;;;;-57
2021/07/26 03:26:57;;;;;;;2.81;2.21;;;;;;;21.81;72.34;99928.45;;;;-57
2021/07/26 03:29:57;;;;;;;2.45;2.11;;;;;;;21.81;72.33;99932.30;;;;-50
2021/07/26 03:32:57;;;;;;;2.42;2.22;;;;;;;21.81;72.36;99935.23;;;;-51
2021/07/26 03:35:57;;;;;;;2.46;2.26;;;;;;;21.80;72.29;99934.06;;;;-51
2021/07/26 03:38:57;;;;;;;2.35;2.15;;;;;;;21.81;72.33;99936.27;;;;-50
2021/07/26 03:41:57;;;;;;;2.20;2.05;;;;;;;21.80;72.30;99934.16;;;;-50
2021/07/26 03:44:57;;;;;;;2.29;2.10;;;;;;;21.79;72.31;99935.73;;;;-51
2021/07/26 03:47:59;;;;;;;2.33;2.00;;;;;;;21.80;72.32;99943.96;;;;-51
2021/07/26 03:50:57;;;;;;;2.03;1.87;;;;;;;21.80;72.32;99947.06;;;;-52
2021/07/26 03:53:57;;;;;;;2.70;2.17;;;;;;;21.80;72.35;99953.17;;;;-52
2021/07/26 03:56:57;;;;;;;2.35;2.10;;;;;;;21.79;72.32;99951.64;;;;-52
2021/07/26 03:59:57;;;;;;;2.25;2.05;;;;;;;21.79;72.38;99953.19;;;;-53
2021/07/26 04:03:04;;;;;;;2.32;2.12;;;;;;;21.79;72.41;99951.73;;;;-52
2021/07/26 04:06:02;;;;;;;2.29;2.09;;;;;;;21.79;72.35;99948.79;;;;-53
2021/07/26 04:08:57;;;;;;;2.16;1.95;;;;;;;21.78;72.39;99945.11;;;;-52
2021/07/26 04:12:01;;;;;;;2.30;2.10;;;;;;;21.78;72.40;99950.58;;;;-53
2021/07/26 04:14:57;;;;;;;2.36;2.16;;;;;;;21.78;72.37;99953.94;;;;-50
2021/07/26 04:17:57;;;;;;;2.32;2.11;;;;;;;21.78;72.44;99964.45;;;;-53
2021/07/26 04:20:57;;;;;;;2.05;1.89;;;;;;;21.77;72.41;99956.88;;;;-54
2021/07/26 04:23:57;;;;;;;2.17;1.97;;;;;;;21.77;72.44;99955.48;;;;-51
2021/07/26 04:26:57;;;;;;;2.28;2.08;;;;;;;21.77;72.47;99958.91;;;;-52
2021/07/26 04:29:57;;;;;;;2.23;2.04;;;;;;;21.77;72.44;99964.46;;;;-51
2021/07/26 04:32:57;;;;;;;1.89;1.79;;;;;;;21.76;72.44;99966.74;;;;-51
2021/07/26 04:35:57;;;;;;;2.31;2.11;;;;;;;21.77;72.42;99971.88;;;;-51
2021/07/26 04:38:57;;;;;;;1.97;1.83;;;;;;;21.77;72.45;99974.16;;;;-51
2021/07/26 04:41:57;;;;;;;2.15;1.92;;;;;;;21.76;72.45;99975.96;;;;-51
2021/07/26 04:44:57;;;;;;;2.18;1.99;;;;;;;21.76;72.41;99979.72;;;;-51
2021/07/26 04:47:57;;;;;;;2.22;2.02;;;;;;;21.77;72.45;99980.19;;;;-51
2021/07/26 04:50:57;;;;;;;2.12;1.96;;;;;;;21.76;72.43;99979.64;;;;-52
2021/07/26 04:53:57;;;;;;;2.32;2.12;;;;;;;21.76;72.42;99980.45;;;;-53
2021/07/26 04:56:57;;;;;;;2.20;2.03;;;;;;;21.75;72.44;99979.00;;;;-52
2021/07/26 04:59:57;;;;;;;2.00;1.90;;;;;;;21.76;72.45;99979.80;;;;-54
2021/07/26 05:02:57;;;;;;;5.39;3.62;;;;;;;21.73;73.11;99978.95;;;;-61
2021/07/26 05:05:57;;;;;;;5.57;3.67;;;;;;;21.69;73.11;99979.31;;;;-62
2021/07/26 05:08:57;;;;;;;4.37;3.88;;;;;;;21.67;73.26;99979.59;;;;-56
2021/07/26 05:11:57;;;;;;;8.18;3.89;;;;;;;21.66;73.41;99981.95;;;;-52
2021/07/26 05:14:57;;;;;;;7.47;3.93;;;;;;;21.68;73.23;99984.03;;;;-52
2021/07/26 05:17:57;;;;;;;6.24;3.71;;;;;;;21.70;73.17;99989.23;;;;-52
2021/07/26 05:20:57;;;;;;;7.68;3.86;;;;;;;21.72;73.13;99989.38;;;;-52
2021/07/26 05:23:57;;;;;;;5.24;3.92;;;;;;;21.73;73.01;99988.55;;;;-52
2021/07/26 05:26:57;;;;;;;4.78;3.58;;;;;;;21.73;72.94;99984.89;;;;-57
2021/07/26 05:29:57;;;;;;;5.19;3.63;;;;;;;21.74;72.90;99984.14;;;;-52
2021/07/26 05:32:57;;;;;;;4.47;3.31;;;;;;;21.74;72.88;99984.30;;;;-51
2021/07/26 05:35:57;;;;;;;4.89;3.37;;;;;;;21.74;72.81;99985.52;;;;-57
2021/07/26 05:38:57;;;;;;;5.10;3.35;;;;;;;21.74;72.80;99990.50;;;;-50
2021/07/26 05:41:57;;;;;;;4.08;3.61;;;;;;;21.74;72.74;99991.39;;;;-57
2021/07/26 05:44:57;;;;;;;6.75;3.59;;;;;;;21.75;72.88;99988.48;;;;-58
2021/07/26 05:47:57;;;;;;;3.78;3.37;;;;;;;21.76;73.09;99989.02;;;;-57
2021/07/26 05:50:57;;;;;;;7.36;3.46;;;;;;;21.78;73.16;99987.86;;;;-60
2021/07/26 05:53:57;;;;;;;4.49;3.39;;;;;;;21.79;73.14;99991.86;;;;-51
2021/07/26 05:56:57;;;;;;;5.58;3.45;;;;;;;21.80;73.20;99999.48;;;;-55
2021/07/26 05:59:57;;;;;;;7.62;3.43;;;;;;;21.83;73.34;100000.21;;;;-57
2021/07/26 06:02:57;;;;;;;4.08;3.20;;;;;;;21.84;73.29;100001.41;;;;-55
2021/07/26 06:05:57;;;;;;;4.03;3.11;;;;;;;21.85;73.22;99997.98;;;;-55
2021/07/26 06:08:57;;;;;;;3.80;3.28;;;;;;;21.87;73.24;99995.51;;;;-50
2021/07/26 06:11:57;;;;;;;4.86;3.08;;;;;;;21.88;73.15;99994.19;;;;-57
2021/07/26 06:14:57;;;;;;;4.17;3.25;;;;;;;21.88;73.07;99994.19;;;;-57
2021/07/26 06:17:57;;;;;;;6.53;3.28;;;;;;;21.88;73.34;99994.59;;;;-48
2021/07/26 06:20:57;;;;;;;3.83;3.10;;;;;;;21.91;73.22;99997.98;;;;-51
2021/07/26 06:23:57;;;;;;;4.28;3.34;;;;;;;21.92;73.24;99994.65;;;;-54
2021/07/26 06:26:57;;;;;;;4.94;3.35;;;;;;;21.94;73.22;99995.04;;;;-49
2021/07/26 06:29:57;;;;;;;5.23;3.34;;;;;;;21.96;73.16;100002.44;;;;-51
2021/07/26 06:32:57;;;;;;;3.87;3.38;;;;;;;21.97;73.12;99998.58;;;;-52
2021/07/26 06:35:57;;;;;;;5.85;3.30;;;;;;;21.98;73.07;99994.74;;;;-47
2021/07/26 06:38:57;;;;;;;3.64;3.23;;;;;;;21.99;73.17;100000.09;;;;-52
2021/07/26 06:41:57;;;;;;;4.43;3.21;;;;;;;22.02;73.06;100010.02;;;;-50
2021/07/26 06:44:57;;;;;;;4.48;3.07;;;;;;;22.03;73.10;100006.00;;;;-48
2021/07/26 06:47:57;;;;;;;5.10;3.21;;;;;;;22.04;73.03;100003.16;;;;-61
2021/07/26 06:50:57;;;;;;;4.30;3.19;;;;;;;22.05;73.03;100003.45;;;;-54
2021/07/26 06:53:57;;;;;;;4.24;3.47;;;;;;;22.06;73.00;99998.73;;;;-59
2021/07/26 06:56:57;;;;;;;9.11;3.23;;;;;;;22.06;72.81;100001.81;;;;-59
2021/07/26 06:59:57;;;;;;;7.53;3.30;;;;;;;22.06;72.78;99999.30;;;;-51
2021/07/26 07:02:57;;;;;;;4.37;3.25;;;;;;;22.05;72.81;99995.30;;;;-51
2021/07/26 07:05:57;;;;;;;4.57;3.10;;;;;;;22.06;72.84;99998.66;;;;-58
2021/07/26 07:08:57;;;;;;;4.82;3.23;;;;;;;22.06;72.71;100000.34;;;;-50
2021/07/26 07:11:57;;;;;;;4.65;3.00;;;;;;;22.05;72.72;99998.58;;;;-53
2021/07/26 07:14:57;;;;;;;3.91;3.20;;;;;;;22.05;72.86;99995.86;;;;-63
2021/07/26 07:17:57;;;;;;;6.69;3.21;;;;;;;22.06;72.75;99994.40;;;;-50
2021/07/26 07:20:57;;;;;;;9.69;3.35;;;;;;;22.08;72.75;99993.16;;;;-50
2021/07/26 07:23:57;;;;;;;6.80;3.30;;;;;;;22.09;72.81;99993.80;;;;-52
2021/07/26 07:26:57;;;;;;;6.53;3.43;;;;;;;22.10;72.84;99993.28;;;;-57
2021/07/26 07:29:57;;;;;;;4.51;3.11;;;;;;;22.10;72.76;100000.22;;;;-55
2021/07/26 07:32:57;;;;;;;5.17;2.85;;;;;;;22.12;72.75;100005.42;;;;-57
2021/07/26 07:35:57;;;;;;;6.15;3.05;;;;;;;22.12;72.77;100011.39;;;;-57
2021/07/26 07:38:59;;;;;;;5.75;2.98;;;;;;;22.13;72.74;100005.32;;;;-59
2021/07/26 07:41:57;;;;;;;7.17;3.27;;;;;;;22.14;72.76;100008.42;;;;-58
2021/07/26 07:44:57;;;;;;;5.89;3.21;;;;;;;22.15;72.56;100010.12;;;;-59
2021/07/26 07:47:57;;;;;;;5.65;3.11;;;;;;;22.14;72.75;100016.24;;;;-59
2021/07/26 07:50:57;;;;;;;6.50;3.12;;;;;;;22.15;72.70;100018.68;;;;-51
2021/07/26 07:53:58;;;;;;;4.84;3.01;;;;;;;22.17;72.58;100017.94;;;;-51
2021/07/26 07:56:57;;;;;;;4.59;2.97;;;;;;;22.17;72.65;100019.98;;;;-62
2021/07/26 07:59:57;;;;;;;7.07;3.25;;;;;;;22.17;72.51;100015.66;;;;-63
2021/07/26 08:02:58;;;;;;;5.05;3.24;;;;;;;22.18;72.60;100018.31;;;;-63
2021/07/26 08:05:59;;;;;;;3.90;2.91;;;;;;;22.19;72.56;100018.24;;;;-59
2021/07/26 08:08:57;;;;;;;4.73;3.16;;;;;;;22.19;72.58;100012.84;;;;-57
2021/07/26 08:11:57;;;;;;;6.08;3.11;;;;;;;22.19;72.50;100012.28;;;;-53
2021/07/26 08:14:57;;;;;;;6.02;2.88;;;;;;;22.19;72.50;100019.54;;;;-59
2021/07/26 08:17:57;;;;;;;4.00;2.92;;;;;;;22.20;72.51;100022.79;;;;-51
2021/07/26 08:20:57;;;;;;;4.46;2.93;;;;;;;22.18;72.33;100024.45;;;;-50
2021/07/26 08:23:58;;;;;;;5.60;3.01;;;;;;;22.17;72.52;100028.06;;;;-50
2021/07/26 08:26:57;;;;;;;5.12;2.91;;;;;;;22.17;72.47;100030.02;;;;-51
2021/07/26 08:29:57;;;;;;;6.80;3.05;;;;;;;22.17;72.48;100034.43;;;;-50
2021/07/26 08:32:57;;;;;;;4.53;2.89;;;;;;;22.16;72.45;100030.75;;;;-47
2021/07/26 08:35:57;;;;;;;3.39;2.94;;;;;;;22.15;72.41;100033.70;;;;-48
2021/07/26 08:38:57;;;;;;;4.58;3.13;;;;;;;22.16;72.39;100034.91;;;;-48
2021/07/26 08:41:57;;;;;;;7.18;3.31;;;;;;;22.16;72.39;100045.92;;;;-48
2021/07/26 08:44:57;;;;;;;5.38;2.80;;;;;;;22.15;72.35;100041.38;;;;-48
2021/07/26 08:47:57;;;;;;;4.81;2.99;;;;;;;22.15;72.31;100039.66;;;;-47
2021/07/26 08:50:57;;;;;;;5.29;3.06;;;;;;;22.14;72.32;100041.72;;;;-47
2021/07/26 08:53:57;;;;;;;6.34;3.16;;;;;;;22.15;72.28;100039.19;;;;-48
2021/07/26 08:56:57;;;;;;;5.93;3.07;;;;;;;22.15;72.35;100036.08;;;;-49
2021/07/26 08:59:57;;;;;;;5.29;3.01;;;;;;;22.16;72.53;100039.97;;;;-59
2021/07/26 09:02:57;;;;;;;5.26;2.95;;;;;;;22.18;72.54;100038.81;;;;-51
2021/07/26 09:05:57;;;;;;;6.55;3.32;;;;;;;22.18;72.57;100043.14;;;;-53
2021/07/26 09:08:58;;;;;;;9.00;3.35;;;;;;;22.20;72.59;100042.55;;;;-56
2021/07/26 09:11:56;;;;;;;4.65;2.99;;;;;;;22.21;72.61;100038.54;;;;-54
2021/07/26 09:14:57;;;;;;;5.45;3.17;;;;;;;22.22;72.65;100036.41;;;;-54
2021/07/26 09:17:57;;;;;;;7.01;3.00;;;;;;;22.22;72.64;100036.39;;;;-52
2021/07/26 09:20:57;;;;;;;7.17;2.99;;;;;;;22.24;72.66;100032.33;;;;-57
2021/07/26 09:23:57;;;;;;;5.93;2.92;;;;;;;22.25;72.75;100039.19;;;;-50
2021/07/26 09:26:57;;;;;;;7.61;2.91;;;;;;;22.26;72.71;100035.24;;;;-57
2021/07/26 09:29:57;;;;;;;5.35;2.81;;;;;;;22.26;72.72;100046.58;;;;-50
2021/07/26 09:32:57;;;;;;;6.39;2.81;;;;;;;22.27;72.72;100038.91;;;;-51
2021/07/26 09:35:57;;;;;;;7.92;3.10;;;;;;;22.28;72.64;100031.70;;;;-52
2021/07/26 09:39:02;;;;;;;4.76;3.01;;;;;;;22.29;72.71;100032.52;;;;-51
2021/07/26 09:41:58;;;;;;;3.65;2.87;;;;;;;22.30;72.69;100032.58;;;;-50
2021/07/26 09:44:57;;;;;;;4.43;2.91;;;;;;;22.30;72.67;100029.47;;;;-52
2021/07/26 09:47:57;;;;;;;4.70;2.84;;;;;;;22.32;72.66;100030.76;;;;-50
2021/07/26 09:50:57;;;;;;;6.13;2.89;;;;;;;22.32;72.67;100027.89;;;;-52
2021/07/26 09:53:57;;;;;;;4.67;2.76;;;;;;;22.33;72.49;100029.93;;;;-60
2021/07/26 09:56:56;;;;;;;4.99;2.81;;;;;;;22.32;72.57;100026.60;;;;-59
2021/07/26 09:59:57;;;;;;;5.88;2.89;;;;;;;22.30;72.55;100019.92;;;;-58
2021/07/26 10:02:57;;;;;;;4.75;2.97;;;;;;;22.30;72.53;100020.50;;;;-59
2021/07/26 10:05:57;;;;;;;4.75;2.82;;;;;;;22.29;72.54;100019.45;;;;-60
2021/07/26 10:08:57;;;;;;;6.93;2.99;;;;;;;22.28;72.49;100017.01;;;;-59
2021/07/26 10:11:57;;;;;;;4.40;2.82;;;;;;;22.28;72.34;100016.17;;;;-58
2021/07/26 10:14:57;;;;;;;3.67;2.75;;;;;;;22.27;72.40;100016.95;;;;-60
2021/07/26 10:17:57;;;;;;;3.97;2.60;;;;;;;22.27;72.34;100016.70;;;;-59
2021/07/26 10:20:57;;;;;;;5.64;2.74;;;;;;;22.26;72.31;100014.82;;;;-59
2021/07/26 10:23:57;;;;;;;10.23;2.89;;;;;;;22.26;72.41;100017.28;;;;-57
2021/07/26 10:26:58;;;;;;;4.74;2.85;;;;;;;22.27;72.38;100011.73;;;;-58
2021/07/26 10:29:57;;;;;;;4.67;2.69;;;;;;;22.28;72.32;100018.31;;;;-52
2021/07/26 10:32:57;;;;;;;6.56;3.18;;;;;;;22.28;72.33;100017.32;;;;-50
2021/07/26 10:35:57;;;;;;;10.25;3.19;;;;;;;22.30;72.29;100023.44;;;;-52
2021/07/26 10:38:57;;;;;;;10.69;2.94;;;;;;;22.30;72.33;100016.23;;;;-53
2021/07/26 10:41:57;;;;;;;6.52;3.01;;;;;;;22.29;72.35;100015.54;;;;-53
2021/07/26 10:44:57;;;;;;;4.85;2.96;;;;;;;22.27;72.42;100011.14;;;;-54
2021/07/26 10:47:57;;;;;;;10.07;3.05;;;;;;;22.27;72.56;100007.06;;;;-52
2021/07/26 10:50:57;;;;;;;4.99;2.97;;;;;;;22.29;72.46;100000.61;;;;-50
2021/07/26 10:53:58;;;;;;;4.97;2.82;;;;;;;22.30;72.44;100000.08;;;;-50
2021/07/26 10:56:56;;;;;;;4.97;2.79;;;;;;;22.32;72.45;99997.04;;;;-51
2021/07/26 10:59:57;;;;;;;6.51;2.91;;;;;;;22.30;72.38;99995.91;;;;-51
2021/07/26 11:02:57;;;;;;;9.35;2.80;;;;;;;22.30;72.37;99996.73;;;;-51
2021/07/26 11:05:57;;;;;;;5.69;2.90;;;;;;;22.28;72.40;99991.14;;;;-51
2021/07/26 11:08:57;;;;;;;7.25;2.98;;;;;;;22.28;72.32;99992.36;;;;-51
2021/07/26 11:11:57;;;;;;;4.41;2.99;;;;;;;22.28;72.34;99992.44;;;;-51
2021/07/26 11:14:57;;;;;;;6.84;3.01;;;;;;;22.27;72.40;99987.89;;;;-51
2021/07/26 11:17:57;;;;;;;5.29;2.84;;;;;;;22.26;72.27;99982.34;;;;-52
2021/07/26 11:21:57;;;;;;;3.99;2.67;;;;;;;22.27;72.27;99980.47;;;;-53
2021/07/26 11:24:57;;;;;;;7.10;2.92;;;;;;;22.26;72.23;99975.89;;;;-52
2021/07/26 11:27:57;;;;;;;7.42;3.03;;;;;;;22.25;72.24;99975.36;;;;-52
2021/07/26 11:30:57;;;;;;;4.57;2.76;;;;;;;22.25;72.20;99972.89;;;;-52
2021/07/26 11:33:57;;;;;;;6.21;2.73;;;;;;;22.25;72.16;99967.76;;;;-52
2021/07/26 11:36:57;;;;;;;6.27;2.69;;;;;;;22.24;72.19;99963.84;;;;-52
2021/07/26 11:39:57;;;;;;;5.77;2.65;;;;;;;22.24;72.18;99961.47;;;;-52
2021/07/26 11:42:57;;;;;;;4.96;2.59;;;;;;;22.24;72.14;99966.03;;;;-52
2021/07/26 11:45:57;;;;;;;5.42;2.67;;;;;;;22.23;72.15;99964.02;;;;-51
2021/07/26 11:48:57;;;;;;;3.39;2.82;;;;;;;22.23;72.14;99968.19;;;;-52
2021/07/26 11:51:57;;;;;;;3.93;2.56;;;;;;;22.23;72.16;99971.18;;;;-51
2021/07/26 11:54:57;;;;;;;4.63;2.83;;;;;;;22.22;72.16;99968.55;;;;-51
2021/07/26 11:57:57;;;;;;;5.05;2.80;;;;;;;22.22;72.18;99965.05;;;;-51
2021/07/26 12:00:57;;;;;;;6.59;2.81;;;;;;;22.21;72.24;99971.19;;;;-54
2021/07/26 12:03:56;;;;;;;5.24;2.64;;;;;;;22.22;72.26;99970.45;;;;-56
2021/07/26 12:06:57;;;;;;;7.25;2.77;;;;;;;22.23;72.22;99972.83;;;;-54
2021/07/26 12:09:57;;;;;;;6.85;2.85;;;;;;;22.23;72.34;99971.45;;;;-50
2021/07/26 12:12:56;;;;;;;8.59;3.31;;;;;;;22.25;72.33;99966.94;;;;-46
2021/07/26 12:15:57;;;;;;;6.10;3.05;;;;;;;22.27;72.27;99969.77;;;;-50
2021/07/26 12:18:56;;;;;;;5.93;2.85;;;;;;;22.29;72.26;99970.31;;;;-51
2021/07/26 12:21:59;;;;;;;4.10;2.69;;;;;;;22.30;72.22;99959.34;;;;-54
2021/07/26 12:25:00;;;;;;;6.15;2.96;;;;;;;22.31;72.17;99964.25;;;;-49
2021/07/26 12:27:58;;;;;;;4.57;2.53;;;;;;;22.32;72.11;99952.64;;;;-51
2021/07/26 12:30:57;;;;;;;6.22;2.99;;;;;;;22.32;72.09;99960.14;;;;-49
2021/07/26 12:33:56;;;;;;;5.48;2.86;;;;;;;22.32;72.00;99965.03;;;;-53
2021/07/26 12:36:58;;;;;;;7.04;3.16;;;;;;;22.34;71.94;99958.82;;;;-48
2021/07/26 12:39:57;;;;;;;6.19;3.07;;;;;;;22.34;72.15;99962.31;;;;-48
2021/07/26 12:42:56;;;;;;;6.06;2.90;;;;;;;22.34;72.21;99967.20;;;;-59
2021/07/26 12:45:57;;;;;;;9.55;3.05;;;;;;;22.34;72.20;99973.58;;;;-59
2021/07/26 12:48:56;;;;;;;10.69;2.99;;;;;;;22.34;72.29;99980.76;;;;-60
2021/07/26 12:51:57;;;;;;;8.94;3.44;;;;;;;22.35;72.21;99982.87;;;;-56
2021/07/26 12:54:56;;;;;;;7.17;3.13;;;;;;;22.34;72.13;99979.05;;;;-56
2021/07/26 12:57:57;;;;;;;5.91;2.79;;;;;;;22.34;72.13;99970.58;;;;-49
2021/07/26 13:00:58;;;;;;;6.95;3.04;;;;;;;22.32;72.16;99962.66;;;;-49
2021/07/26 13:03:57;;;;;;;6.63;2.93;;;;;;;22.32;72.10;99967.58;;;;-51
2021/07/26 13:06:57;;;;;;;5.50;2.83;;;;;;;22.32;72.10;99970.02;;;;-49
2021/07/26 13:09:57;;;;;;;5.56;3.27;;;;;;;22.31;72.08;99979.27;;;;-49
2021/07/26 13:12:57;;;;;;;7.02;2.83;;;;;;;22.30;72.11;99979.42;;;;-49
2021/07/26 13:15:57;;;;;;;6.56;2.87;;;;;;;22.31;72.21;99985.87;;;;-53
2021/07/26 13:18:56;;;;;;;9.61;3.10;;;;;;;22.32;72.15;99982.09;;;;-49
2021/07/26 13:21:57;;;;;;;7.56;3.02;;;;;;;22.35;72.11;99979.44;;;;-52
2021/07/26 13:24:57;;;;;;;5.15;2.84;;;;;;;22.36;72.14;99977.14;;;;-52
2021/07/26 13:27:57;;;;;;;6.70;3.23;;;;;;;22.37;72.14;99972.16;;;;-57
2021/07/26 13:30:57;;;;;;;10.41;2.88;;;;;;;22.38;72.16;99970.02;;;;-53
2021/07/26 13:33:56;;;;;;;5.51;2.96;;;;;;;22.39;72.18;99975.90;;;;-51
2021/07/26 13:36:57;;;;;;;7.60;3.00;;;;;;;22.39;72.15;99984.39;;;;-50
2021/07/26 13:39:57;;;;;;;5.67;2.97;;;;;;;22.40;72.12;99982.58;;;;-60
2021/07/26 13:42:56;;;;;;;5.87;3.07;;;;;;;22.42;72.18;99984.44;;;;-59
2021/07/26 13:45:57;;;;;;;5.29;3.01;;;;;;;22.42;72.14;99989.50;;;;-56
2021/07/26 13:48:56;;;;;;;4.60;2.88;;;;;;;22.42;72.17;99994.13;;;;-58
2021/07/26 13:51:57;;;;;;;5.41;2.87;;;;;;;22.43;72.17;99989.29;;;;-58
2021/07/26 13:54:57;;;;;;;5.73;3.06;;;;;;;22.44;72.18;99986.86;;;;-54
2021/07/26 13:57:57;;;;;;;5.78;2.93;;;;;;;22.44;72.16;99986.27;;;;-49
2021/07/26 14:00:57;;;;;;;8.12;3.09;;;;;;;22.44;72.25;99988.31;;;;-51
2021/07/26 14:03:56;;;;;;;5.06;2.91;;;;;;;22.44;72.20;99991.74;;;;-50
2021/07/26 14:06:57;;;;;;;6.57;3.14;;;;;;;22.46;72.17;99992.63;;;;-47
2021/07/26 14:09:57;;;;;;;4.96;2.99;;;;;;;22.46;72.18;99991.39;;;;-54
2021/07/26 14:13:01;;;;;;;6.17;3.55;;;;;;;22.46;72.19;99992.13;;;;-53
2021/07/26 14:15:57;;;;;;;8.71;3.04;;;;;;;22.47;72.16;99983.77;;;;-50
2021/07/26 14:18:56;;;;;;;9.97;2.96;;;;;;;22.47;72.13;99977.25;;;;-48
2021/07/26 14:21:57;;;;;;;9.79;3.25;;;;;;;22.46;72.27;99985.84;;;;-50
2021/07/26 14:24:57;;;;;;;7.68;2.99;;;;;;;22.47;72.21;99984.44;;;;-47
2021/07/26 14:27:56;;;;;;;7.44;3.09;;;;;;;22.48;72.23;99979.20;;;;-50
2021/07/26 14:30:57;;;;;;;8.95;3.03;;;;;;;22.48;72.19;99981.14;;;;-49
2021/07/26 14:33:56;;;;;;;7.64;2.87;;;;;;;22.49;72.20;99971.33;;;;-49
2021/07/26 14:36:57;;;;;;;9.31;2.93;;;;;;;22.50;72.22;99969.47;;;;-62
2021/07/26 14:39:57;;;;;;;13.56;3.52;;;;;;;22.52;72.21;99970.81;;;;-49
2021/07/26 14:42:56;;;;;;;8.24;3.14;;;;;;;22.50;72.08;99968.87;;;;-52
2021/07/26 14:45:57;;;;;;;7.13;3.25;;;;;;;22.49;72.13;99963.82;;;;-48
2021/07/26 14:48:57;;;;;;;6.81;3.09;;;;;;;22.50;72.13;99966.75;;;;-54
2021/07/26 14:51:57;;;;;;;7.63;2.95;;;;;;;22.50;72.09;99966.58;;;;-55
2021/07/26 14:54:58;;;;;;;5.35;3.01;;;;;;;22.51;72.06;99961.67;;;;-59
2021/07/26 14:57:56;;;;;;;6.51;3.20;;;;;;;22.52;72.07;99962.07;;;;-64
2021/07/26 15:00:57;;;;;;;5.60;3.03;;;;;;;22.52;72.06;99969.91;;;;-56
2021/07/26 15:03:56;;;;;;;4.45;3.02;;;;;;;22.53;72.06;99987.30;;;;-66
2021/07/26 15:06:57;;;;;;;6.43;2.98;;;;;;;22.52;72.06;99988.62;;;;-61
2021/07/26 15:09:57;;;;;;;6.25;3.11;;;;;;;22.52;72.01;99986.33;;;;-61
2021/07/26 15:12:56;;;;;;;6.67;2.99;;;;;;;22.52;72.01;99985.75;;;;-53
2021/07/26 15:15:57;;;;;;;7.24;2.73;;;;;;;22.53;72.01;99991.13;;;;-58
2021/07/26 15:18:56;;;;;;;6.02;3.18;;;;;;;22.52;72.02;99995.47;;;;-53
2021/07/26 15:21:56;;;;;;;7.18;3.27;;;;;;;22.52;72.08;100000.21;;;;-60
2021/07/26 15:24:57;;;;;;;7.26;3.17;;;;;;;22.50;71.94;99994.34;;;;-60
2021/07/26 15:27:56;;;;;;;6.13;3.32;;;;;;;22.50;72.18;99984.39;;;;-59
2021/07/26 15:30:57;;;;;;;6.97;3.25;;;;;;;22.48;72.06;99975.59;;;;-60
2021/07/26 15:33:56;;;;;;;8.79;3.26;;;;;;;22.47;72.06;99968.27;;;;-60
2021/07/26 15:36:56;;;;;;;6.38;3.11;;;;;;;22.47;72.01;99962.55;;;;-60
2021/07/26 15:39:57;;;;;;;6.11;3.15;;;;;;;22.46;71.99;99963.22;;;;-61
2021/07/26 15:42:57;;;;;;;8.97;3.61;;;;;;;22.46;72.03;99975.56;;;;-59
2021/07/26 15:45:57;;;;;;;6.71;3.10;;;;;;;22.46;71.96;99984.20;;;;-57
2021/07/26 15:48:56;;;;;;;5.01;2.91;;;;;;;22.45;71.94;99986.00;;;;-57
2021/07/26 15:51:57;;;;;;;5.73;2.93;;;;;;;22.44;71.96;99989.96;;;;-56
2021/07/26 15:54:57;;;;;;;6.97;3.28;;;;;;;22.44;71.96;99977.22;;;;-55
2021/07/26 15:57:56;;;;;;;4.05;3.23;;;;;;;22.43;71.98;99965.38;;;;-55
2021/07/26 16:00:57;;;;;;;6.39;3.20;;;;;;;22.43;71.96;99966.93;;;;-55
2021/07/26 16:03:56;;;;;;;7.11;3.06;;;;;;;22.41;71.89;99958.88;;;;-56
2021/07/26 16:06:57;;;;;;;5.77;3.30;;;;;;;22.41;71.93;99953.98;;;;-55
2021/07/26 16:09:56;;;;;;;9.11;3.30;;;;;;;22.41;72.08;99946.15;;;;-47
2021/07/26 16:12:56;;;;;;;5.45;3.01;;;;;;;22.44;72.03;99937.54;;;;-48
2021/07/26 16:15:57;;;;;;;5.00;2.80;;;;;;;22.46;72.00;99933.76;;;;-49
2021/07/26 16:18:56;;;;;;;8.71;3.27;;;;;;;22.45;72.09;99934.97;;;;-50
2021/07/26 16:21:57;;;;;;;4.43;2.86;;;;;;;22.46;72.00;99929.75;;;;-50
2021/07/26 16:24:57;;;;;;;8.61;3.17;;;;;;;22.47;71.93;99927.84;;;;-48
2021/07/26 16:27:56;;;;;;;6.35;2.96;;;;;;;22.48;72.00;99923.42;;;;-48
2021/07/26 16:30:57;;;;;;;7.00;3.19;;;;;;;22.50;71.95;99918.34;;;;-45
2021/07/26 16:33:56;;;;;;;6.80;2.91;;;;;;;22.51;71.98;99923.87;;;;-46
2021/07/26 16:36:57;;;;;;;7.09;3.31;;;;;;;22.51;71.98;99936.11;;;;-46
2021/07/26 16:39:57;;;;;;;5.46;2.85;;;;;;;22.51;72.03;99941.74;;;;-48
2021/07/26 16:42:56;;;;;;;6.09;3.07;;;;;;;22.52;72.01;99943.23;;;;-50
2021/07/26 16:45:56;;;;;;;5.80;2.92;;;;;;;22.52;72.02;99941.16;;;;-49
2021/07/26 16:48:57;;;;;;;5.07;2.90;;;;;;;22.53;72.04;99931.93;;;;-44
2021/07/26 16:51:56;;;;;;;3.01;2.60;;;;;;;22.54;72.03;99926.84;;;;-50
2021/07/26 16:54:57;;;;;;;5.79;2.87;;;;;;;22.54;72.04;99930.61;;;;-47